Terminal Aerodrome Forecast
Issued by NWS

Home | Current Version | Previous Version | Graphics & Text | Print | Product List | Glossary On
Versions: 1 2 3 4 5 6 7 8 9 10 11 12 13 14 15 16 17 18 19 20 21 22 23 24 25 26 27 28 29 30 31 32
000
FTUS43 KGRB 180900 AAA
TAFRHI
TAF AMD
KRHI 180919Z 1809/1906 28012G19KT P6SM OVC018
      TEMPO 1809/1812 4SM -SHSN
     FM181500 27011G18KT P6SM BKN025 BKN035
     FM182200 25006KT P6SM SCT025 SCT035=

USA.gov is the U.S. government's official web portal to all federal, state and local government web resources and services.